sensor_id;sensor_type;location;lat;lon;timestamp;pressure;altitude;pressure_sealevel;temperature;humidity
82728;BME280;72459;50.110;8.750;2023-09-30T00:00:23;101403.66;;;16.40;65.37
82728;BME280;72459;50.110;8.750;2023-09-30T00:02:50;101406.31;;;16.40;64.35
82728;BME280;72459;50.110;8.750;2023-09-30T00:05:15;101405.25;;;16.33;64.92
82728;BME280;72459;50.110;8.750;2023-09-30T00:07:40;101415.03;;;16.36;66.79
82728;BME280;72459;50.110;8.750;2023-09-30T00:10:06;101423.03;;;16.37;65.98
82728;BME280;72459;50.110;8.750;2023-09-30T00:12:32;101427.53;;;16.40;65.94
82728;BME280;72459;50.110;8.750;2023-09-30T00:14:57;101430.72;;;16.28;65.69
82728;BME280;72459;50.110;8.750;2023-09-30T00:17:26;101439.53;;;16.27;66.18
82728;BME280;72459;50.110;8.750;2023-09-30T00:19:53;101437.47;;;16.18;67.03
82728;BME280;72459;50.110;8.750;2023-09-30T00:22:18;101449.84;;;16.18;66.38
82728;BME280;72459;50.110;8.750;2023-09-30T00:24:44;101452.44;;;16.16;66.40
82728;BME280;72459;50.110;8.750;2023-09-30T00:27:09;101455.16;;;16.18;66.33
82728;BME280;72459;50.110;8.750;2023-09-30T00:29:34;101452.31;;;16.12;67.14
82728;BME280;72459;50.110;8.750;2023-09-30T00:32:00;101456.75;;;16.13;66.48
82728;BME280;72459;50.110;8.750;2023-09-30T00:34:26;101450.44;;;16.09;67.05
82728;BME280;72459;50.110;8.750;2023-09-30T00:36:51;101456.50;;;16.05;68.12
82728;BME280;72459;50.110;8.750;2023-09-30T00:39:16;101459.88;;;16.00;67.56
82728;BME280;72459;50.110;8.750;2023-09-30T00:41:42;101461.47;;;15.95;69.07
82728;BME280;72459;50.110;8.750;2023-09-30T00:44:07;101467.59;;;15.92;67.09
82728;BME280;72459;50.110;8.750;2023-09-30T00:46:36;101469.28;;;15.90;67.65
82728;BME280;72459;50.110;8.750;2023-09-30T00:49:01;101474.38;;;15.84;66.66
82728;BME280;72459;50.110;8.750;2023-09-30T00:51:28;101473.38;;;15.80;66.80
82728;BME280;72459;50.110;8.750;2023-09-30T00:53:56;101471.38;;;15.73;67.06
82728;BME280;72459;50.110;8.750;2023-09-30T00:56:25;101479.19;;;15.69;67.75
82728;BME280;72459;50.110;8.750;2023-09-30T00:58:51;101470.28;;;15.67;67.52
82728;BME280;72459;50.110;8.750;2023-09-30T01:01:18;101467.44;;;15.61;68.20
82728;BME280;72459;50.110;8.750;2023-09-30T01:03:45;101473.53;;;15.60;66.96
82728;BME280;72459;50.110;8.750;2023-09-30T01:06:11;101469.00;;;15.57;67.38
82728;BME280;72459;50.110;8.750;2023-09-30T01:08:37;101475.09;;;15.54;68.15
82728;BME280;72459;50.110;8.750;2023-09-30T01:11:03;101469.75;;;15.53;67.34
82728;BME280;72459;50.110;8.750;2023-09-30T01:13:36;101466.09;;;15.49;68.48
82728;BME280;72459;50.110;8.750;2023-09-30T01:16:06;101470.59;;;15.52;67.48
82728;BME280;72459;50.110;8.750;2023-09-30T01:18:32;101477.88;;;15.58;68.34
82728;BME280;72459;50.110;8.750;2023-09-30T01:21:03;101483.47;;;15.65;68.12
82728;BME280;72459;50.110;8.750;2023-09-30T01:23:32;101486.38;;;15.73;68.20
82728;BME280;72459;50.110;8.750;2023-09-30T01:26:02;101494.28;;;15.71;68.46
82728;BME280;72459;50.110;8.750;2023-09-30T01:28:29;101492.44;;;15.69;67.92
82728;BME280;72459;50.110;8.750;2023-09-30T01:30:55;101497.00;;;15.73;66.94
82728;BME280;72459;50.110;8.750;2023-09-30T01:33:20;101499.78;;;15.77;66.85
82728;BME280;72459;50.110;8.750;2023-09-30T01:35:46;101495.50;;;15.81;68.36
82728;BME280;72459;50.110;8.750;2023-09-30T01:38:11;101500.91;;;15.84;67.21
82728;BME280;72459;50.110;8.750;2023-09-30T01:40:36;101488.63;;;15.88;66.67
82728;BME280;72459;50.110;8.750;2023-09-30T01:43:05;101485.03;;;15.85;69.34
82728;BME280;72459;50.110;8.750;2023-09-30T01:45:30;101482.25;;;15.81;68.52
82728;BME280;72459;50.110;8.750;2023-09-30T01:47:56;101483.09;;;15.80;67.98
82728;BME280;72459;50.110;8.750;2023-09-30T01:50:21;101482.94;;;15.75;67.49
82728;BME280;72459;50.110;8.750;2023-09-30T01:52:46;101482.72;;;15.69;67.25
82728;BME280;72459;50.110;8.750;2023-09-30T01:55:12;101481.69;;;15.64;67.60
82728;BME280;72459;50.110;8.750;2023-09-30T01:57:37;101479.69;;;15.59;67.21
82728;BME280;72459;50.110;8.750;2023-09-30T02:00:03;101479.41;;;15.51;67.05
82728;BME280;72459;50.110;8.750;2023-09-30T02:02:30;101469.44;;;15.44;68.26
82728;BME280;72459;50.110;8.750;2023-09-30T02:04:55;101472.03;;;15.42;67.33
82728;BME280;72459;50.110;8.750;2023-09-30T02:07:22;101466.56;;;15.38;68.30
82728;BME280;72459;50.110;8.750;2023-09-30T02:09:47;101460.28;;;15.34;68.99
82728;BME280;72459;50.110;8.750;2023-09-30T02:12:14;101473.72;;;15.40;66.97
82728;BME280;72459;50.110;8.750;2023-09-30T02:14:39;101474.63;;;15.41;67.53
82728;BME280;72459;50.110;8.750;2023-09-30T02:17:05;101489.66;;;15.42;67.96
82728;BME280;72459;50.110;8.750;2023-09-30T02:19:31;101490.69;;;15.45;67.90
82728;BME280;72459;50.110;8.750;2023-09-30T02:21:59;101494.22;;;15.46;68.11
82728;BME280;72459;50.110;8.750;2023-09-30T02:24:25;101498.69;;;15.47;67.96
82728;BME280;72459;50.110;8.750;2023-09-30T02:26:50;101497.78;;;15.46;68.61
82728;BME280;72459;50.110;8.750;2023-09-30T02:29:15;101503.94;;;15.45;68.32
82728;BME280;72459;50.110;8.750;2023-09-30T02:31:41;101501.38;;;15.48;68.73
82728;BME280;72459;50.110;8.750;2023-09-30T02:34:07;101505.69;;;15.45;68.04
82728;BME280;72459;50.110;8.750;2023-09-30T02:36:33;101505.69;;;15.45;67.34
82728;BME280;72459;50.110;8.750;2023-09-30T02:39:01;101498.53;;;15.42;68.42
82728;BME280;72459;50.110;8.750;2023-09-30T02:41:26;101502.88;;;15.40;68.07
82728;BME280;72459;50.110;8.750;2023-09-30T02:43:52;101507.06;;;15.34;68.49
82728;BME280;72459;50.110;8.750;2023-09-30T02:46:17;101501.66;;;15.31;67.35
82728;BME280;72459;50.110;8.750;2023-09-30T02:48:42;101497.03;;;15.25;67.59
82728;BME280;72459;50.110;8.750;2023-09-30T02:51:11;101501.25;;;15.20;68.77
82728;BME280;72459;50.110;8.750;2023-09-30T02:53:37;101507.41;;;15.19;68.67
82728;BME280;72459;50.110;8.750;2023-09-30T02:56:03;101509.09;;;15.17;68.27
82728;BME280;72459;50.110;8.750;2023-09-30T02:58:29;101514.50;;;15.20;67.60
82728;BME280;72459;50.110;8.750;2023-09-30T03:00:55;101526.84;;;15.19;66.70
82728;BME280;72459;50.110;8.750;2023-09-30T03:03:22;101531.25;;;15.19;67.40
82728;BME280;72459;50.110;8.750;2023-09-30T03:05:49;101539.28;;;15.22;67.78
82728;BME280;72459;50.110;8.750;2023-09-30T03:08:15;101537.56;;;15.22;67.01
82728;BME280;72459;50.110;8.750;2023-09-30T03:10:41;101548.31;;;15.27;67.20
82728;BME280;72459;50.110;8.750;2023-09-30T03:13:07;101541.25;;;15.28;67.25
82728;BME280;72459;50.110;8.750;2023-09-30T03:15:36;101534.22;;;15.28;66.90
82728;BME280;72459;50.110;8.750;2023-09-30T03:18:02;101527.91;;;15.25;68.41
82728;BME280;72459;50.110;8.750;2023-09-30T03:20:28;101527.75;;;15.20;69.49
82728;BME280;72459;50.110;8.750;2023-09-30T03:22:56;101522.34;;;15.17;67.53
82728;BME280;72459;50.110;8.750;2023-09-30T03:25:22;101514.41;;;15.17;66.75
82728;BME280;72459;50.110;8.750;2023-09-30T03:27:48;101521.28;;;15.12;68.33
82728;BME280;72459;50.110;8.750;2023-09-30T03:30:15;101524.66;;;15.08;68.45
82728;BME280;72459;50.110;8.750;2023-09-30T03:32:44;101530.63;;;15.02;67.75
82728;BME280;72459;50.110;8.750;2023-09-30T03:35:10;101523.34;;;14.97;68.39
82728;BME280;72459;50.110;8.750;2023-09-30T03:37:40;101525.00;;;14.95;67.56
82728;BME280;72459;50.110;8.750;2023-09-30T03:40:06;101516.97;;;14.91;67.01
82728;BME280;72459;50.110;8.750;2023-09-30T03:42:46;101538.81;;;14.86;69.10
82728;BME280;72459;50.110;8.750;2023-09-30T03:45:12;101553.72;;;14.84;67.33
82728;BME280;72459;50.110;8.750;2023-09-30T03:47:40;101558.06;;;14.82;69.96
82728;BME280;72459;50.110;8.750;2023-09-30T03:50:06;101550.06;;;14.80;68.55
82728;BME280;72459;50.110;8.750;2023-09-30T03:52:38;101554.44;;;14.80;68.63
82728;BME280;72459;50.110;8.750;2023-09-30T03:55:04;101559.63;;;14.77;67.30
82728;BME280;72459;50.110;8.750;2023-09-30T03:57:34;101565.72;;;14.74;67.67
82728;BME280;72459;50.110;8.750;2023-09-30T04:00:00;101561.06;;;14.69;68.82
82728;BME280;72459;50.110;8.750;2023-09-30T04:02:26;101561.88;;;14.66;67.96
82728;BME280;72459;50.110;8.750;2023-09-30T04:04:51;101572.31;;;14.63;67.83
82728;BME280;72459;50.110;8.750;2023-09-30T04:07:19;101572.44;;;14.66;69.60
82728;BME280;72459;50.110;8.750;2023-09-30T04:09:44;101564.56;;;14.68;68.53
82728;BME280;72459;50.110;8.750;2023-09-30T04:12:10;101560.41;;;14.74;68.01
82728;BME280;72459;50.110;8.750;2023-09-30T04:14:36;101543.47;;;14.69;69.21
82728;BME280;72459;50.110;8.750;2023-09-30T04:17:01;101538.94;;;14.67;68.28
82728;BME280;72459;50.110;8.750;2023-09-30T04:19:26;101552.84;;;14.61;68.60
82728;BME280;72459;50.110;8.750;2023-09-30T04:21:56;101549.91;;;14.53;70.73
82728;BME280;72459;50.110;8.750;2023-09-30T04:24:21;101553.25;;;14.49;68.90
82728;BME280;72459;50.110;8.750;2023-09-30T04:26:47;101558.22;;;14.42;68.47
82728;BME280;72459;50.110;8.750;2023-09-30T04:29:13;101564.28;;;14.39;69.94
82728;BME280;72459;50.110;8.750;2023-09-30T04:31:39;101583.59;;;14.37;68.43
82728;BME280;72459;50.110;8.750;2023-09-30T04:34:07;101578.28;;;14.37;70.05
82728;BME280;72459;50.110;8.750;2023-09-30T04:36:32;101574.81;;;14.38;69.40
82728;BME280;72459;50.110;8.750;2023-09-30T04:39:00;101577.44;;;14.38;68.56
82728;BME280;72459;50.110;8.750;2023-09-30T04:41:26;101589.91;;;14.40;70.97
82728;BME280;72459;50.110;8.750;2023-09-30T04:43:51;101589.16;;;14.43;68.70
82728;BME280;72459;50.110;8.750;2023-09-30T04:46:18;101578.56;;;14.43;69.32
82728;BME280;72459;50.110;8.750;2023-09-30T04:48:45;101586.34;;;14.40;70.57
82728;BME280;72459;50.110;8.750;2023-09-30T04:51:14;101578.28;;;14.37;72.32
82728;BME280;72459;50.110;8.750;2023-09-30T04:53:41;101566.81;;;14.36;70.77
82728;BME280;72459;50.110;8.750;2023-09-30T04:56:07;101584.53;;;14.39;70.43
82728;BME280;72459;50.110;8.750;2023-09-30T04:58:32;101581.91;;;14.39;69.70
82728;BME280;72459;50.110;8.750;2023-09-30T05:00:57;101585.25;;;14.35;70.58
82728;BME280;72459;50.110;8.750;2023-09-30T05:03:23;101586.88;;;14.31;70.07
82728;BME280;72459;50.110;8.750;2023-09-30T05:05:53;101584.97;;;14.28;71.34
82728;BME280;72459;50.110;8.750;2023-09-30T05:08:23;101586.53;;;14.23;71.07
82728;BME280;72459;50.110;8.750;2023-09-30T05:10:49;101584.72;;;14.22;69.68
82728;BME280;72459;50.110;8.750;2023-09-30T05:13:14;101586.22;;;14.16;70.52
82728;BME280;72459;50.110;8.750;2023-09-30T05:15:40;101580.88;;;14.14;70.36
82728;BME280;72459;50.110;8.750;2023-09-30T05:18:06;101580.63;;;14.08;71.13
82728;BME280;72459;50.110;8.750;2023-09-30T05:20:33;101590.22;;;14.06;69.91
82728;BME280;72459;50.110;8.750;2023-09-30T05:23:01;101596.03;;;13.98;69.96
82728;BME280;72459;50.110;8.750;2023-09-30T05:25:28;101583.59;;;13.95;69.02
82728;BME280;72459;50.110;8.750;2023-09-30T05:27:53;101579.06;;;13.92;69.29
82728;BME280;72459;50.110;8.750;2023-09-30T05:30:19;101578.81;;;13.86;70.46
82728;BME280;72459;50.110;8.750;2023-09-30T05:32:45;101583.06;;;13.83;69.58
82728;BME280;72459;50.110;8.750;2023-09-30T05:35:12;101583.84;;;13.80;69.91
82728;BME280;72459;50.110;8.750;2023-09-30T05:37:42;101582.03;;;13.79;70.27
82728;BME280;72459;50.110;8.750;2023-09-30T05:40:09;101599.63;;;13.79;71.85
82728;BME280;72459;50.110;8.750;2023-09-30T05:42:45;101600.47;;;13.78;70.07
82728;BME280;72459;50.110;8.750;2023-09-30T05:45:11;101604.91;;;13.79;69.49
82728;BME280;72459;50.110;8.750;2023-09-30T05:47:40;101603.09;;;13.78;71.07
82728;BME280;72459;50.110;8.750;2023-09-30T05:50:06;101603.09;;;13.78;70.39
82728;BME280;72459;50.110;8.750;2023-09-30T05:52:32;101613.69;;;13.78;70.16
82728;BME280;72459;50.110;8.750;2023-09-30T05:54:57;101613.75;;;13.79;69.20
82728;BME280;72459;50.110;8.750;2023-09-30T05:57:23;101615.63;;;13.82;71.36
82728;BME280;72459;50.110;8.750;2023-09-30T05:59:48;101609.50;;;13.83;69.44
82728;BME280;72459;50.110;8.750;2023-09-30T06:02:15;101609.63;;;13.86;71.93
82728;BME280;72459;50.110;8.750;2023-09-30T06:04:40;101614.91;;;13.86;70.51
82728;BME280;72459;50.110;8.750;2023-09-30T06:07:06;101604.47;;;13.89;70.58
82728;BME280;72459;50.110;8.750;2023-09-30T06:09:31;101615.09;;;13.90;70.31
82728;BME280;72459;50.110;8.750;2023-09-30T06:11:56;101615.16;;;13.92;73.06
82728;BME280;72459;50.110;8.750;2023-09-30T06:14:22;101625.88;;;13.95;71.57
82728;BME280;72459;50.110;8.750;2023-09-30T06:16:48;101618.06;;;13.98;70.60
82728;BME280;72459;50.110;8.750;2023-09-30T06:19:13;101618.19;;;14.01;71.54
82728;BME280;72459;50.110;8.750;2023-09-30T06:21:38;101624.47;;;14.03;71.98
82728;BME280;72459;50.110;8.750;2023-09-30T06:24:05;101637.09;;;14.10;71.22
82728;BME280;72459;50.110;8.750;2023-09-30T06:26:30;101633.63;;;14.11;72.11
82728;BME280;72459;50.110;8.750;2023-09-30T06:28:56;101629.63;;;14.21;70.94
82728;BME280;72459;50.110;8.750;2023-09-30T06:31:22;101636.78;;;14.23;73.87
82728;BME280;72459;50.110;8.750;2023-09-30T06:33:48;101644.16;;;14.31;69.86
82728;BME280;72459;50.110;8.750;2023-09-30T06:36:14;101647.97;;;14.37;71.70
82728;BME280;72459;50.110;8.750;2023-09-30T06:38:40;101639.47;;;14.44;70.44
82728;BME280;72459;50.110;8.750;2023-09-30T06:41:07;101639.84;;;14.53;71.09
82728;BME280;72459;50.110;8.750;2023-09-30T06:43:34;101637.25;;;14.55;70.79
82728;BME280;72459;50.110;8.750;2023-09-30T06:46:06;101648.81;;;14.57;70.45
82728;BME280;72459;50.110;8.750;2023-09-30T06:48:35;101643.53;;;14.57;69.50
82728;BME280;72459;50.110;8.750;2023-09-30T06:51:01;101650.63;;;14.58;69.56
82728;BME280;72459;50.110;8.750;2023-09-30T06:53:26;101651.59;;;14.60;70.49
82728;BME280;72459;50.110;8.750;2023-09-30T06:55:55;101663.97;;;14.61;71.21
82728;BME280;72459;50.110;8.750;2023-09-30T06:58:24;101673.72;;;14.62;70.81
82728;BME280;72459;50.110;8.750;2023-09-30T07:00:52;101677.31;;;14.64;69.79
82728;BME280;72459;50.110;8.750;2023-09-30T07:03:20;101662.34;;;14.65;71.02
82728;BME280;72459;50.110;8.750;2023-09-30T07:05:46;101659.94;;;14.71;72.21
82728;BME280;72459;50.110;8.750;2023-09-30T07:08:16;101669.88;;;14.76;70.47
82728;BME280;72459;50.110;8.750;2023-09-30T07:10:41;101677.41;;;14.88;69.52
82728;BME280;72459;50.110;8.750;2023-09-30T07:13:07;101667.06;;;14.94;69.65
82728;BME280;72459;50.110;8.750;2023-09-30T07:15:32;101656.03;;;15.04;69.93
82728;BME280;72459;50.110;8.750;2023-09-30T07:17:58;101664.38;;;15.15;71.34
82728;BME280;72459;50.110;8.750;2023-09-30T07:20:23;101665.41;;;15.18;68.90
82728;BME280;72459;50.110;8.750;2023-09-30T07:22:49;101670.44;;;15.35;69.22
82728;BME280;72459;50.110;8.750;2023-09-30T07:25:14;101667.50;;;15.27;67.85
82728;BME280;72459;50.110;8.750;2023-09-30T07:27:43;101668.81;;;15.38;68.19
82728;BME280;72459;50.110;8.750;2023-09-30T07:30:08;101677.00;;;15.44;67.47
82728;BME280;72459;50.110;8.750;2023-09-30T07:32:35;101679.63;;;15.44;67.86
82728;BME280;72459;50.110;8.750;2023-09-30T07:35:00;101676.94;;;15.43;68.53
82728;BME280;72459;50.110;8.750;2023-09-30T07:37:26;101682.13;;;15.40;67.65
82728;BME280;72459;50.110;8.750;2023-09-30T07:39:52;101683.88;;;15.39;68.76
82728;BME280;72459;50.110;8.750;2023-09-30T07:42:17;101685.06;;;15.47;68.15
82728;BME280;72459;50.110;8.750;2023-09-30T07:44:42;101689.03;;;15.59;68.77
82728;BME280;72459;50.110;8.750;2023-09-30T07:47:08;101666.28;;;15.64;67.37
82728;BME280;72459;50.110;8.750;2023-09-30T07:49:37;101661.00;;;15.64;67.32
82728;BME280;72459;50.110;8.750;2023-09-30T07:52:03;101665.56;;;15.68;66.15
82728;BME280;72459;50.110;8.750;2023-09-30T07:54:29;101666.41;;;15.67;67.28
82728;BME280;72459;50.110;8.750;2023-09-30T07:56:54;101664.50;;;15.63;67.70
82728;BME280;72459;50.110;8.750;2023-09-30T07:59:20;101669.34;;;15.74;66.14
82728;BME280;72459;50.110;8.750;2023-09-30T08:01:50;101668.66;;;15.80;66.48
82728;BME280;72459;50.110;8.750;2023-09-30T08:04:15;101668.97;;;15.89;65.11
82728;BME280;72459;50.110;8.750;2023-09-30T08:06:43;101663.41;;;15.81;65.71
82728;BME280;72459;50.110;8.750;2023-09-30T08:09:12;101664.47;;;15.87;65.35
82728;BME280;72459;50.110;8.750;2023-09-30T08:11:38;101658.44;;;15.91;64.87
82728;BME280;72459;50.110;8.750;2023-09-30T08:14:04;101655.66;;;15.88;65.71
82728;BME280;72459;50.110;8.750;2023-09-30T08:16:34;101665.59;;;15.93;64.46
82728;BME280;72459;50.110;8.750;2023-09-30T08:19:00;101674.41;;;15.92;63.74
82728;BME280;72459;50.110;8.750;2023-09-30T08:21:26;101679.31;;;15.81;64.56
82728;BME280;72459;50.110;8.750;2023-09-30T08:23:51;101682.06;;;15.84;64.81
82728;BME280;72459;50.110;8.750;2023-09-30T08:26:17;101684.94;;;15.91;63.93
82728;BME280;72459;50.110;8.750;2023-09-30T08:28:44;101678.09;;;15.97;64.38
82728;BME280;72459;50.110;8.750;2023-09-30T08:31:11;101671.22;;;16.02;64.87
82728;BME280;72459;50.110;8.750;2023-09-30T08:33:37;101678.22;;;16.00;64.27
82728;BME280;72459;50.110;8.750;2023-09-30T08:36:06;101679.50;;;16.11;63.63
82728;BME280;72459;50.110;8.750;2023-09-30T08:38:35;101681.25;;;16.11;62.37
82728;BME280;72459;50.110;8.750;2023-09-30T08:41:01;101685.41;;;16.28;64.32
82728;BME280;72459;50.110;8.750;2023-09-30T08:43:28;101693.53;;;16.33;64.03
82728;BME280;72459;50.110;8.750;2023-09-30T08:45:56;101707.72;;;16.09;62.04
82728;BME280;72459;50.110;8.750;2023-09-30T08:48:23;101710.09;;;16.26;64.41
82728;BME280;72459;50.110;8.750;2023-09-30T08:50:53;101708.72;;;16.37;63.55
82728;BME280;72459;50.110;8.750;2023-09-30T08:53:21;101699.16;;;16.42;62.77
82728;BME280;72459;50.110;8.750;2023-09-30T08:55:48;101706.38;;;16.71;63.76
82728;BME280;72459;50.110;8.750;2023-09-30T08:58:15;101709.41;;;16.84;62.45
82728;BME280;72459;50.110;8.750;2023-09-30T09:00:42;101703.03;;;17.04;63.74
82728;BME280;72459;50.110;8.750;2023-09-30T09:03:08;101699.38;;;17.29;62.35
82728;BME280;72459;50.110;8.750;2023-09-30T09:05:34;101699.47;;;17.60;63.26
82728;BME280;72459;50.110;8.750;2023-09-30T09:07:59;101704.00;;;17.94;62.78
82728;BME280;72459;50.110;8.750;2023-09-30T09:10:24;101699.16;;;18.11;60.76
82728;BME280;72459;50.110;8.750;2023-09-30T09:12:58;101706.75;;;18.29;60.82
82728;BME280;72459;50.110;8.750;2023-09-30T09:15:24;101714.09;;;17.74;59.35
82728;BME280;72459;50.110;8.750;2023-09-30T09:17:49;101718.72;;;17.82;60.56
82728;BME280;72459;50.110;8.750;2023-09-30T09:20:21;101722.94;;;17.73;60.67
82728;BME280;72459;50.110;8.750;2023-09-30T09:22:49;101724.06;;;17.55;61.93
82728;BME280;72459;50.110;8.750;2023-09-30T09:25:22;101720.19;;;17.70;60.44
82728;BME280;72459;50.110;8.750;2023-09-30T09:27:49;101715.38;;;17.59;59.27
82728;BME280;72459;50.110;8.750;2023-09-30T09:33:02;101723.66;;;17.68;60.63
82728;BME280;72459;50.110;8.750;2023-09-30T09:35:29;101715.38;;;17.89;60.37
82728;BME280;72459;50.110;8.750;2023-09-30T09:37:56;101716.09;;;18.15;61.24
82728;BME280;72459;50.110;8.750;2023-09-30T09:40:23;101710.38;;;18.31;60.90
82728;BME280;72459;50.110;8.750;2023-09-30T09:42:52;101714.91;;;18.35;59.72
82728;BME280;72459;50.110;8.750;2023-09-30T09:45:21;101716.09;;;18.46;59.71
82728;BME280;72459;50.110;8.750;2023-09-30T09:47:51;101721.25;;;18.40;58.86
82728;BME280;72459;50.110;8.750;2023-09-30T09:50:22;101713.28;;;18.75;58.29
82728;BME280;72459;50.110;8.750;2023-09-30T09:52:49;101719.03;;;18.90;58.22
82728;BME280;72459;50.110;8.750;2023-09-30T09:55:20;101715.91;;;19.08;58.40
82728;BME280;72459;50.110;8.750;2023-09-30T09:57:48;101713.13;;;19.03;56.67
82728;BME280;72459;50.110;8.750;2023-09-30T10:00:32;101708.09;;;19.17;56.34
82728;BME280;72459;50.110;8.750;2023-09-30T10:02:59;101705.50;;;19.20;55.95
82728;BME280;72459;50.110;8.750;2023-09-30T10:05:25;101698.69;;;19.32;55.37
82728;BME280;72459;50.110;8.750;2023-09-30T10:08:02;101685.22;;;19.26;56.84
82728;BME280;72459;50.110;8.750;2023-09-30T10:10:30;101689.03;;;19.38;55.63
82728;BME280;72459;50.110;8.750;2023-09-30T10:12:56;101677.78;;;19.51;56.37
82728;BME280;72459;50.110;8.750;2023-09-30T10:20:41;101670.88;;;20.04;55.21
82728;BME280;72459;50.110;8.750;2023-09-30T10:25:44;101670.78;;;20.00;55.81
82728;BME280;72459;50.110;8.750;2023-09-30T10:28:34;101668.91;;;19.94;55.40
82728;BME280;72459;50.110;8.750;2023-09-30T10:31:20;101658.09;;;19.86;55.71
82728;BME280;72459;50.110;8.750;2023-09-30T10:36:35;101667.03;;;19.48;56.08
82728;BME280;72459;50.110;8.750;2023-09-30T10:39:03;101669.19;;;19.64;54.98
82728;BME280;72459;50.110;8.750;2023-09-30T10:46:54;101665.44;;;19.54;53.76
82728;BME280;72459;50.110;8.750;2023-09-30T10:51:55;101664.84;;;19.28;55.00
82728;BME280;72459;50.110;8.750;2023-09-30T10:54:30;101660.41;;;19.29;51.82
82728;BME280;72459;50.110;8.750;2023-09-30T10:56:59;101664.53;;;19.15;52.03
82728;BME280;72459;50.110;8.750;2023-09-30T10:59:28;101659.66;;;18.95;54.56
82728;BME280;72459;50.110;8.750;2023-09-30T11:01:55;101655.31;;;19.00;52.92
82728;BME280;72459;50.110;8.750;2023-09-30T11:04:22;101658.88;;;19.01;54.99
82728;BME280;72459;50.110;8.750;2023-09-30T11:06:48;101657.88;;;18.96;52.67
82728;BME280;72459;50.110;8.750;2023-09-30T11:09:20;101655.09;;;18.90;53.39
82728;BME280;72459;50.110;8.750;2023-09-30T11:11:52;101656.06;;;18.93;53.80
82728;BME280;72459;50.110;8.750;2023-09-30T11:16:46;101656.78;;;18.86;51.77
82728;BME280;72459;50.110;8.750;2023-09-30T11:19:12;101663.09;;;18.91;54.01
82728;BME280;72459;50.110;8.750;2023-09-30T11:21:39;101666.84;;;18.99;53.17
82728;BME280;72459;50.110;8.750;2023-09-30T11:24:06;101674.09;;;19.05;52.30
82728;BME280;72459;50.110;8.750;2023-09-30T11:26:32;101673.41;;;19.14;51.61
82728;BME280;72459;50.110;8.750;2023-09-30T11:29:15;101669.56;;;19.01;50.24
82728;BME280;72459;50.110;8.750;2023-09-30T11:31:47;101663.34;;;19.02;50.46
82728;BME280;72459;50.110;8.750;2023-09-30T11:34:15;101658.72;;;19.34;52.30
82728;BME280;72459;50.110;8.750;2023-09-30T11:36:48;101657.50;;;19.57;52.13
82728;BME280;72459;50.110;8.750;2023-09-30T11:39:26;101657.81;;;19.73;50.60
82728;BME280;72459;50.110;8.750;2023-09-30T11:41:53;101653.91;;;20.01;52.87
82728;BME280;72459;50.110;8.750;2023-09-30T11:44:20;101652.38;;;20.15;52.36
82728;BME280;72459;50.110;8.750;2023-09-30T11:46:57;101657.88;;;20.21;50.18
82728;BME280;72459;50.110;8.750;2023-09-30T11:49:37;101660.56;;;20.74;49.00
82728;BME280;72459;50.110;8.750;2023-09-30T11:52:12;101656.63;;;21.70;51.95
82728;BME280;72459;50.110;8.750;2023-09-30T11:54:39;101660.56;;;22.95;48.36
82728;BME280;72459;50.110;8.750;2023-09-30T11:57:14;101654.00;;;24.40;45.71
82728;BME280;72459;50.110;8.750;2023-09-30T11:59:44;101647.53;;;25.69;39.88
82728;BME280;72459;50.110;8.750;2023-09-30T12:02:11;101643.63;;;27.25;33.13
82728;BME280;72459;50.110;8.750;2023-09-30T12:04:37;101640.66;;;28.15;39.06
82728;BME280;72459;50.110;8.750;2023-09-30T12:07:03;101641.59;;;30.07;36.10
82728;BME280;72459;50.110;8.750;2023-09-30T12:09:29;101638.84;;;30.08;27.06
82728;BME280;72459;50.110;8.750;2023-09-30T12:11:56;101629.09;;;31.99;33.30
82728;BME280;72459;50.110;8.750;2023-09-30T12:14:23;101631.09;;;33.01;30.94
82728;BME280;72459;50.110;8.750;2023-09-30T12:16:49;101628.22;;;33.31;29.91
82728;BME280;72459;50.110;8.750;2023-09-30T12:19:18;101627.03;;;34.30;31.77
82728;BME280;72459;50.110;8.750;2023-09-30T12:21:45;101625.06;;;34.97;31.87
82728;BME280;72459;50.110;8.750;2023-09-30T12:24:14;101628.84;;;35.54;30.03
82728;BME280;72459;50.110;8.750;2023-09-30T12:26:49;101609.13;;;34.23;23.57
82728;BME280;72459;50.110;8.750;2023-09-30T12:29:18;101612.94;;;33.97;28.61
82728;BME280;72459;50.110;8.750;2023-09-30T12:31:44;101614.16;;;34.12;28.79
82728;BME280;72459;50.110;8.750;2023-09-30T12:34:11;101614.34;;;32.87;28.45
82728;BME280;72459;50.110;8.750;2023-09-30T12:36:37;101613.34;;;31.50;30.19
82728;BME280;72459;50.110;8.750;2023-09-30T12:39:03;101604.41;;;29.28;34.52
82728;BME280;72459;50.110;8.750;2023-09-30T12:41:38;101600.75;;;25.84;31.36
82728;BME280;72459;50.110;8.750;2023-09-30T12:44:05;101608.72;;;26.07;37.59
82728;BME280;72459;50.110;8.750;2023-09-30T12:46:31;101609.00;;;25.52;37.36
82728;BME280;72459;50.110;8.750;2023-09-30T12:48:59;101608.28;;;25.00;38.55
82728;BME280;72459;50.110;8.750;2023-09-30T12:51:25;101610.97;;;24.26;37.05
82728;BME280;72459;50.110;8.750;2023-09-30T12:53:50;101611.81;;;23.98;37.34
82728;BME280;72459;50.110;8.750;2023-09-30T12:56:16;101609.84;;;23.42;40.08
82728;BME280;72459;50.110;8.750;2023-09-30T12:58:41;101608.81;;;23.17;38.80
82728;BME280;72459;50.110;8.750;2023-09-30T13:01:07;101613.69;;;24.34;38.26
82728;BME280;72459;50.110;8.750;2023-09-30T13:03:32;101608.28;;;24.81;37.00
82728;BME280;72459;50.110;8.750;2023-09-30T13:05:58;101612.78;;;24.61;37.29
82728;BME280;72459;50.110;8.750;2023-09-30T13:08:23;101607.38;;;24.17;37.44
82728;BME280;72459;50.110;8.750;2023-09-30T13:10:49;101614.03;;;22.87;36.90
82728;BME280;72459;50.110;8.750;2023-09-30T13:13:16;101609.03;;;23.55;39.56